• Join FlightAware (Why Join?)
  • Login
  • US Flag 
07:12AM EDT


 

Airport Tracker/Info


-or-


 

Live Flight TrackerFlight Track Log ✈ GJS3618 ✈ 02-Feb-2014 ✈ KDEN - KDTW

Flight Track Log - Related Links

Times and Time Zones

All times are in EST time to prevent confusion due to time zone crossing. See the GJS3618 flight status page for this flight to view local times or setup timezone preferences in your user account.

Time Position Orientation Groundspeed Altitude Reporting Facility
EST Latitude Longitude Course Direction KTS MPH feet Rate Location/Type
01:46PM 39.8833 -104.5833 79° East 183 211 7,000  Level Denver TRACON
01:47PM 39.9000 -104.5000 75° East 237 273 8,900 1,740 Climbing Denver TRACON
01:48PM 39.9387 -104.1714 73° East  Level FlightAware Approximate
01:49PM 39.9667 -104.0066 90° East  Level FlightAware Approximate
01:49PM 39.9353 -104.2681 79° East 307 353 13,000  Level Denver Center
01:50PM 39.9963 -103.8424 79° East  Level FlightAware Approximate
01:50PM 39.9558 -104.1478 77° East 338 389 14,400  Level Denver Center
01:51PM 40.0293 -103.6786 79° East  Level FlightAware Approximate
01:51PM 39.9800 -104.0047 78° East 374 430 15,700  Level Denver Center
01:52PM 40.0036 -103.8661 77° East 388 447 16,900 1,020 Climbing Denver Center
01:53PM 40.0264 -103.7419 76° East 412 474 17,800 1,020 Climbing Denver Center
01:54PM 40.0558 -103.5614 78° East 418 481 19,100 1,080 Climbing Denver Center
01:55PM 40.0800 -103.4058 78° East 435 501 20,100 960 Climbing Denver Center
01:56PM 40.1072 -103.2475 77° East 446 513 21,200 960 Climbing Denver Center
01:58PM 40.1328 -103.0847 78° East 456 525 22,200 960 Climbing Denver Center
01:59PM 40.1633 -102.8892 78° East 458 527 23,400 960 Climbing Denver Center
02:00PM 40.1928 -102.6897 79° East 465 535 24,600 960 Climbing Denver Center
02:01PM 40.2197 -102.5133 79° East 466 536 25,700 1,020 Climbing Denver Center
02:02PM 40.2492 -102.3294 78° East 463 533 26,800 960 Climbing Denver Center
02:03PM 40.2850 -102.1483 75° East 459 528 27,900 1,020 Climbing Denver Center
02:04PM 40.3464 -101.9500 68° East 459 528 29,200 1,020 Climbing Denver Center
02:05PM 40.3911 -101.8008 68° East 460 529 30,100 840 Climbing Denver Center
02:06PM 40.4461 -101.6278 67° East 461 531 31,000 720 Climbing Denver Center
02:07PM 40.4917 -101.4769 68° East 464 534 31,700 720 Climbing Denver Center
02:08PM 40.5503 -101.3356 61° Northeast 461 531 32,500 660 Climbing Denver Center
02:10PM 40.6289 -101.1781 57° Northeast 461 531 33,100 480 Climbing Denver Center
02:11PM 40.6972 -101.0419 56° Northeast 464 534 33,600 480 Climbing Denver Center
02:12PM 40.7781 -100.8814 56° Northeast 468 539 34,200 480 Climbing Denver Center
02:13PM 40.8486 -100.7419 56° Northeast 474 545 34,700 360 Climbing Denver Center
02:14PM 40.9236 -100.5908 57° Northeast 477 549 35,000 120 Climbing Denver Center
02:15PM 40.9681 -100.3939 73° East 500 575 35,000 240 Level Denver Center
02:16PM 41.0008 -100.2206 76° East 505 581 35,500 360 Climbing Denver Center
02:17PM 41.0289 -100.0764 75° East 506 582 35,800 480 Climbing Denver Center
02:18PM 41.0722 -99.8461 76° East 506 582 36,500 540 Climbing Denver Center
02:19PM 41.1106 -99.6456 76° East 504 580 37,000 240 Climbing Denver Center
02:20PM 41.1422 -99.4714 76° East 505 581 37,000  Level Denver Center
02:21PM 41.1753 -99.2931 76° East 514 592 37,000  Level Denver Center
02:22PM 41.2139 -99.0839 76° East 522 601 37,000  Level Denver Center
02:23PM 41.2514 -98.8697 77° East 531 611 37,000  Level Denver Center
02:24PM 41.2806 -98.7103 76° East 531 611 37,000  Level Denver Center
02:25PM 41.3219 -98.4772 77° East 532 612 37,000  Level Denver Center
02:26PM 41.3686 -98.2094 77° East 530 610 37,000  Level Minneapolis Center
02:28PM 41.4039 -98.0058 77° East 530 610 37,000  Level Minneapolis Center
02:29PM 41.4367 -97.8142 77° East 531 611 37,000  Level Minneapolis Center
02:30PM 41.4683 -97.6231 77° East 528 608 37,000  Level Minneapolis Center
02:31PM 41.5017 -97.4306 77° East 531 611 37,000  Level Minneapolis Center
02:32PM 41.5328 -97.2386 78° East 531 611 37,000  Level Minneapolis Center
02:33PM 41.5644 -97.0467 78° East 530 610 37,000  Level Minneapolis Center
02:34PM 41.5942 -96.8528 78° East 531 611 37,000  Level Minneapolis Center
02:35PM 41.6256 -96.6589 78° East 532 612 37,000  Level Minneapolis Center
02:36PM 41.6619 -96.4256 78° East 532 612 37,000  Level Minneapolis Center
02:37PM 41.6925 -96.2297 78° East 533 613 37,000  Level Minneapolis Center
02:38PM 41.7219 -96.0336 79° East 533 613 37,000  Level Minneapolis Center
02:39PM 41.7528 -95.8372 78° East 533 613 37,000  Level Minneapolis Center
02:40PM 41.7825 -95.6411 78° East 534 615 37,000  Level Minneapolis Center
02:42PM 41.8386 -95.2464 79° East 536 617 37,000  Level Minneapolis Center
02:43PM 41.8661 -95.0497 79° East 536 617 37,000  Level Minneapolis Center
02:44PM 41.8956 -94.8500 79° East 542 624 37,000  Level Minneapolis Center
02:45PM 41.9300 -94.6108 79° East 542 624 37,000  Level Minneapolis Center
02:46PM 41.9556 -94.4117 80° East 543 625 37,000  Level Minneapolis Center
02:47PM 41.9831 -94.2108 79° East 545 627 37,000  Level Minneapolis Center
02:48PM 42.0106 -94.0103 79° East 546 628 37,000  Level Minneapolis Center
02:49PM 42.0386 -93.7989 80° East 546 628 37,000  Level Minneapolis Center
02:50PM 42.0653 -93.5986 80° East 546 628 37,000  Level Minneapolis Center
02:51PM 42.0914 -93.3972 80° East 548 631 37,000  Level Minneapolis Center
02:52PM 42.1172 -93.1942 80° East 553 636 37,000  Level Minneapolis Center
02:53PM 42.1419 -92.9897 81° East 555 639 37,000  Level Minneapolis Center
02:54PM 42.1622 -92.8272 80° East 554 638 37,000  Level Chicago Center
02:55PM 42.1872 -92.6217 81° East 557 641 37,000  Level Chicago Center
02:56PM 42.2125 -92.4175 80° East 557 641 37,000  Level Chicago Center
02:57PM 42.2361 -92.2111 81° East 561 646 37,000  Level Chicago Center
02:58PM 42.2594 -92.0058 81° East 561 646 37,000  Level Chicago Center
02:59PM 42.2886 -91.7589 81° East 563 648 37,000  Level Chicago Center
03:00PM 42.3117 -91.5539 81° East 563 648 37,000  Level Chicago Center
03:01PM 42.3342 -91.3475 82° East 564 649 37,000  Level Chicago Center
03:02PM 42.3556 -91.1417 82° East 563 648 37,000  Level Chicago Center
03:03PM 42.3819 -90.8908 82° East 568 654 37,000  Level Chicago Center
03:04PM 42.4111 -90.6831 79° East 572 658 37,000  Level Chicago Center
03:05PM 42.4714 -90.4867 67° East 573 659 37,000  Level Chicago Center
03:06PM 42.5300 -90.2869 68° East 575 662 37,000  Level Chicago Center
03:07PM 42.5897 -90.0861 68° East 578 665 37,000  Level Chicago Center
03:08PM 42.6592 -89.8656 67° East 579 666 37,000  Level Chicago Center
03:09PM 42.7186 -89.6631 68° East 580 667 37,000  Level Chicago Center
03:10PM 42.7792 -89.4614 68° East 577 664 37,000  Level Chicago Center
03:11PM 42.8383 -89.2581 68° East 580 667 37,000  Level Chicago Center
03:12PM 42.9072 -89.0133 69° East 579 666 37,000  Level Chicago Center
03:13PM 42.9667 -88.8083 68° East 584 672 37,000  Level Chicago Center
03:14PM 43.0258 -88.6061 68° East 581 669 37,000  Level Chicago Center
03:16PM 43.0831 -88.4039 69° East 579 666 37,000  Level Chicago Center
03:17PM 43.1281 -88.1961 73° East 579 666 37,000 -60 Level Chicago Center
03:18PM 43.1586 -87.9372 81° East 581 669 36,900 -600 Descending Chicago Center
03:19PM 43.1861 -87.7178 80° East 589 678 35,800 -1,140 Descending Chicago Center
03:20PM 43.2125 -87.4944 81° East 596 686 34,600 -1,200 Descending Chicago Center
03:21PM 43.2422 -87.2497 80° East 604 695 33,400 -720 Descending Chicago Center
03:22PM 43.2697 -87.0217 81° East 607 699 33,200 -240 Descending Chicago Center
03:23PM 43.2936 -86.8028 81° East 584 672 33,000 -120 Descending Chicago Center
03:24PM 43.3186 -86.5864 81° East 575 662 33,000  Level Chicago Center
03:25PM 43.3428 -86.3633 81° East 586 674 33,000 -480 Level Chicago Center
03:26PM 43.3669 -86.1394 81° East 589 678 32,100 -1,320 Descending Chicago Center
03:27PM 43.3725 -85.9317 88° East 550 633 30,300 -1,080 Descending Chicago Center
03:28PM 43.3417 -85.7436 103° East 511 588 30,000 -240 Descending Chicago Center
03:29PM 43.3081 -85.5567 104° East 500 575 29,900 -1,020 Descending Chicago Center
03:30PM 43.2739 -85.3667 104° East 507 583 28,000 -1,920 Descending Chicago Center
03:31PM 43.2406 -85.1842 104° East 499 574 26,000 -2,100 Descending Chicago Center
03:32PM 43.2014 -84.9756 104° East 476 548 23,800 -1,620 Descending Chicago Center
03:33PM 43.1692 -84.8044 104° East 467 537 22,700 -1,440 Descending Chicago Center
03:34PM 43.1353 -84.6256 104° East 481 554 20,900 -1,800 Descending Chicago Center
03:35PM 43.1019 -84.4486 104° East 481 554 19,100 -1,920 Descending Chicago Center
03:36PM 43.0822 -84.3475 105° East 465 535 18,000 -1,620 Descending Cleveland Center
03:37PM 43.0533 -84.1975 105° East 440 506 16,600 -1,500 Descending Cleveland Center
03:37PM 43.0422 -84.1469 107° East 424 488 16,100 -1,680 Descending Cleveland Center
03:38PM 43.0219 -84.0381 104° East 422 486 15,000 -1,500 Descending Cleveland Center
03:38PM 43.0228 -84.0414 289° West 427 491 15,000 -1,320 Level Cleveland Center
03:39PM 42.9925 -83.8878 105° East 411 473 13,700 -1,260 Descending Cleveland Center
03:39PM 42.9939 -83.8903 307° West 414 476 13,700 -1,140 Level Cleveland Center
03:40PM 42.9261 -83.7867 132° Southeast 381 438 12,500 -1,260 Descending Cleveland Center
03:40PM 42.9089 -83.7811 167° South 357 411 12,400 -540 Descending Cleveland Center
03:41PM 42.8361 -83.7336 154° Southeast 356 410 12,000 -360 Descending Cleveland Center
03:41PM 42.7989 -83.7133 158° South 345 397 12,000 -120 Level Cleveland Center
03:42PM 42.7314 -83.6664 153° Southeast 353 406 11,900 -660 Descending Cleveland Center
03:43PM 42.6628 -83.5825 138° Southeast 325 374 10,900 -1,020 Descending Cleveland Center
03:43PM 42.6619 -83.5786 106° East 337 388 10,900 -1,380 Level Cleveland Center
03:44PM 42.5997 -83.5053 139° Southeast 292 336 9,500 -1,500 Descending Cleveland Center
03:44PM 42.5994 -83.5025 98° East 307 353 9,400 -1,440 Descending Cleveland Center
03:45PM 42.5406 -83.4325 139° Southeast 285 328 8,000 -1,260 Descending Cleveland Center
03:46PM 42.4836 -83.3669 140° Southeast 272 313 6,900 -1,140 Descending Cleveland Center
03:46PM 42.4769 -83.3603 144° Southeast 252 290 6,800 -1,140 Descending Cleveland Center
03:47PM 42.4292 -83.3039 139° Southeast 241 277 5,800 -1,020 Descending Cleveland Center
03:47PM 42.4269 -83.3022 151° Southeast 222 255 5,800 -1,020 Level Cleveland Center
03:48PM 42.3839 -83.2742 154° Southeast 209 241 4,800 -1,320 Descending Cleveland Center
03:48PM 42.3725 -83.2747 182° South 201 231 4,500 -1,560 Descending Cleveland Center
03:49PM 42.3292 -83.2906 195° South 209 241 3,200 -1,260 Descending Cleveland Center
03:50PM 42.2783 -83.3267 208° Southwest 145 167 2,000 -1,020 Descending Cleveland Center
03:50PM 42.2861 -83.3231 19° North 190 219 2,200 -840 Climbing Cleveland Center
03:51PM 42.2450 -83.3528 208° Southwest 139 160 1,200 -1,020 Descending Cleveland Center
03:51PM 42.2450 -83.3522 90° East 152 175 1,200 -420 Level Cleveland Center
03:52PM 42.2131 -83.3778 211° Southwest 148 170 800 -420 Descending Cleveland Center